createdAt,value
2023-11-24T00:04:00.155Z,100609.91
2023-11-24T00:09:01.611Z,100595.03
2023-11-24T00:14:03.424Z,100589.59
2023-11-24T00:19:04.820Z,100582.16
2023-11-24T00:24:06.658Z,100587.41
2023-11-24T00:29:08.258Z,100582.97
2023-11-24T00:34:09.838Z,100659.19
2023-11-24T00:39:11.553Z,100679.88
2023-11-24T00:44:12.988Z,100682.06
2023-11-24T00:49:14.422Z,100684.94
2023-11-24T00:54:16.141Z,100675.81
2023-11-24T00:59:17.648Z,100709.56
2023-11-24T01:04:19.382Z,100712.59
2023-11-24T01:09:20.861Z,100712.38
2023-11-24T01:14:22.200Z,100728.72
2023-11-24T01:19:23.621Z,100733.69
2023-11-24T01:24:25.075Z,100732.06
2023-11-24T01:29:26.444Z,100719.84
2023-11-24T01:34:28.008Z,100709.75
2023-11-24T01:39:29.709Z,100707.94
2023-11-24T01:44:31.328Z,100696.38
2023-11-24T01:49:32.830Z,100695.75
2023-11-24T01:54:38.571Z,100697.19
2023-11-24T01:59:40.362Z,100692.97
2023-11-24T02:04:42.065Z,100705.81
2023-11-24T02:09:43.675Z,100701.84
2023-11-24T02:14:45.052Z,100716.06
2023-11-24T02:19:46.933Z,100703.84
2023-11-24T02:24:48.328Z,100703.03
2023-11-24T02:29:49.749Z,100705.81
2023-11-24T02:34:51.213Z,100696.38
2023-11-24T02:39:53.005Z,100691.84
2023-11-24T02:44:54.443Z,100690.97
2023-11-24T02:49:55.860Z,100691.28
2023-11-24T02:54:57.242Z,100679.97
2023-11-24T02:59:58.615Z,100678.28
2023-11-24T03:04:59.973Z,100672.53
2023-11-24T03:10:01.354Z,100668.59
2023-11-24T03:15:02.716Z,100650.53
2023-11-24T03:20:04.284Z,100645.06
2023-11-24T03:25:05.930Z,100641.34
2023-11-24T03:30:07.614Z,100636.38
2023-11-24T03:35:09.230Z,100633.28
2023-11-24T03:40:11.220Z,100628.09
2023-11-24T03:45:13.279Z,100624.78
2023-11-24T03:50:15.331Z,100624.59
2023-11-24T03:55:16.973Z,100628.72
2023-11-24T04:00:18.466Z,100629.38
2023-11-24T04:05:20.356Z,100623.78
2023-11-24T04:10:21.738Z,100623.66
2023-11-24T04:15:24.278Z,100620.03
2023-11-24T04:20:25.627Z,100623.72
2023-11-24T04:25:27.059Z,100626.72
2023-11-24T04:30:28.593Z,100622.97
2023-11-24T04:35:30.077Z,100617.44
2023-11-24T04:40:31.485Z,100618.34
2023-11-24T04:45:32.885Z,100613.84
2023-11-24T04:50:35.967Z,100605.47
2023-11-24T04:55:37.453Z,100612.13
2023-11-24T05:00:38.811Z,100592.50
2023-11-24T05:05:40.196Z,100593.81
2023-11-24T05:10:41.539Z,100592.84
2023-11-24T05:15:43.042Z,100599.63
2023-11-24T05:20:44.881Z,100569.97
2023-11-24T05:25:46.402Z,100575.44
2023-11-24T05:30:47.777Z,100580.81
2023-11-24T05:35:49.240Z,100577.13
2023-11-24T05:40:51.019Z,100585.72
2023-11-24T05:45:52.442Z,100572.47
2023-11-24T05:50:53.926Z,100575.84
2023-11-24T05:55:55.334Z,100583.19
2023-11-24T06:00:56.736Z,100574.34
2023-11-24T06:05:58.197Z,100571.03
2023-11-24T06:10:59.534Z,100573.66
2023-11-24T06:16:01.088Z,100566.53
2023-11-24T06:21:02.486Z,100569.13
2023-11-24T06:26:03.872Z,100561.66
2023-11-24T06:31:06.149Z,100560.13
2023-11-24T06:36:08.468Z,100551.84
2023-11-24T06:41:09.864Z,100561.88
2023-11-24T06:46:13.028Z,100553.56
2023-11-24T06:51:14.437Z,100548.19
2023-11-24T06:56:15.821Z,100549.06
2023-11-24T07:01:26.761Z,100550.72
2023-11-24T07:06:28.480Z,100546.50
2023-11-24T07:11:30.075Z,100528.66
2023-11-24T07:16:31.741Z,100526.66
2023-11-24T07:21:33.218Z,100529.50
2023-11-24T07:26:34.630Z,100522.69
2023-11-24T07:31:36.251Z,100512.69
2023-11-24T07:36:37.659Z,100516.63
2023-11-24T07:41:39.022Z,100529.31
2023-11-24T07:46:40.763Z,100519.38
2023-11-24T07:51:42.695Z,100513.13
2023-11-24T07:56:44.083Z,100518.38
2023-11-24T08:01:46.361Z,100520.09
2023-11-24T08:06:47.833Z,100526.88
2023-11-24T08:11:49.663Z,100511.97
2023-11-24T08:16:52.239Z,100496.88
2023-11-24T08:21:53.990Z,100494.31
2023-11-24T08:26:55.430Z,100486.69
2023-11-24T08:31:58.777Z,100481.06
2023-11-24T08:37:03.326Z,100474.34
2023-11-24T08:42:05.059Z,100463.94
2023-11-24T08:47:06.417Z,100464.81
2023-11-24T08:52:07.820Z,100459.19
2023-11-24T08:57:09.210Z,100444.34
2023-11-24T09:02:10.720Z,100456.53
2023-11-24T09:07:12.247Z,100463.03
2023-11-24T09:12:16.693Z,100470.63
2023-11-24T09:17:18.040Z,100452.84
2023-11-24T09:22:20.626Z,100448.19
2023-11-24T09:27:22.770Z,100452.44
2023-11-24T09:32:24.326Z,100435.22
2023-11-24T09:37:27.614Z,100418.72
2023-11-24T09:42:31.280Z,100424.38
2023-11-24T09:47:33.167Z,100422.03
2023-11-24T09:52:34.592Z,100423.03
2023-11-24T09:57:36.074Z,100409.47
2023-11-24T10:02:38.179Z,100397.53
2023-11-24T10:07:40.560Z,100378.84
2023-11-24T10:12:43.557Z,100376.13
2023-11-24T10:17:46.798Z,100360.13
2023-11-24T10:22:50.401Z,100354.91
2023-11-24T10:28:01.808Z,100344.59
2023-11-24T10:33:04.939Z,100345.66
2023-11-24T10:38:07.564Z,100340.31
2023-11-24T10:43:09.412Z,100341.56
2023-11-24T10:48:15.855Z,100353.34
2023-11-24T10:53:20.395Z,100350.53
2023-11-24T10:58:22.509Z,100334.31
2023-11-24T11:03:23.973Z,100328.94
2023-11-24T11:08:35.325Z,100319.81
2023-11-24T11:13:37.925Z,100323.84
2023-11-24T11:18:39.741Z,100297.69
2023-11-24T11:23:42.703Z,100288.91
2023-11-24T11:28:47.066Z,100294.84
2023-11-24T11:33:48.765Z,100297.66
2023-11-24T11:38:54.543Z,100294.84
2023-11-24T11:43:56.794Z,100300.69
2023-11-24T11:48:58.737Z,100303.56
2023-11-24T11:54:00.154Z,100310.84
2023-11-24T11:59:01.580Z,100303.91
2023-11-24T12:04:05.092Z,100291.50
2023-11-24T12:09:09.644Z,100310.66
2023-11-24T12:14:12.884Z,100295.75
2023-11-24T12:19:15.055Z,100286.09
2023-11-24T12:24:17.523Z,100282.78
2023-11-24T12:29:19.782Z,100270.00
2023-11-24T12:34:21.582Z,100271.78
2023-11-24T12:39:31.497Z,100262.88
2023-11-24T12:44:37.545Z,100256.25
2023-11-24T12:49:57.756Z,100258.88
2023-11-24T12:54:59.304Z,100248.22
2023-11-24T13:00:07.280Z,100237.69
2023-11-24T13:05:09.622Z,100245.19
2023-11-24T13:10:12.166Z,100255.69
2023-11-24T13:15:14.220Z,100270.25
2023-11-24T13:20:18.022Z,100264.03
2023-11-24T13:25:19.539Z,100265.66
2023-11-24T13:30:24.397Z,100261.09
2023-11-24T13:35:26.660Z,100255.09
2023-11-24T13:40:32.095Z,100258.03
2023-11-24T13:45:35.379Z,100266.59
2023-11-24T13:50:38.334Z,100255.91
2023-11-24T13:55:44.667Z,100248.22
2023-11-24T14:00:46.875Z,100247.34
2023-11-24T14:05:52.264Z,100246.41
2023-11-24T14:10:53.676Z,100244.06
2023-11-24T14:15:55.623Z,100254.66
2023-11-24T14:20:58.056Z,100263.34
2023-11-24T14:25:59.422Z,100267.94
2023-11-24T14:31:01.901Z,100269.41
2023-11-24T14:36:03.430Z,100265.53
2023-11-24T14:41:08.428Z,100282.13
2023-11-24T14:46:10.274Z,100270.63
2023-11-24T14:51:13.930Z,100269.03
2023-11-24T14:56:16.705Z,100273.22
2023-11-24T15:01:20.699Z,100269.53
2023-11-24T15:06:26.979Z,100267.78
2023-11-24T15:11:46.218Z,100248.75
2023-11-24T15:16:58.858Z,100248.06
2023-11-24T15:22:05.956Z,100246.72
2023-11-24T15:27:08.987Z,100244.59
2023-11-24T15:32:18.593Z,100250.75
2023-11-24T15:37:20.307Z,100262.09
2023-11-24T15:42:21.754Z,100246.53
2023-11-24T15:47:25.508Z,100235.59
2023-11-24T15:52:28.380Z,100255.72
2023-11-24T15:57:29.768Z,100268.66
2023-11-24T16:02:33.731Z,100286.19
2023-11-24T16:07:35.757Z,100296.38
2023-11-24T16:12:37.219Z,100286.91
2023-11-24T16:17:38.588Z,100294.22
2023-11-24T16:22:41.089Z,100292.13
2023-11-24T16:27:42.923Z,100277.91
2023-11-24T16:32:44.298Z,100262.53
2023-11-24T16:37:45.715Z,100279.84
2023-11-24T16:42:49.026Z,100265.47
2023-11-24T16:47:51.275Z,100250.13
2023-11-24T16:52:52.700Z,100249.78
2023-11-24T16:57:54.165Z,100242.19
2023-11-24T17:02:55.764Z,100237.16
2023-11-24T17:07:59.545Z,100222.28
2023-11-24T17:13:01.470Z,100230.19
2023-11-24T17:18:05.958Z,100242.00
2023-11-24T17:23:07.429Z,100246.06
2023-11-24T17:28:09.039Z,100315.56
2023-11-24T17:33:10.627Z,100277.31
2023-11-24T17:38:12.589Z,100295.41
2023-11-24T17:43:14.386Z,100302.91
2023-11-24T17:48:16.836Z,100288.34
2023-11-24T17:53:19.581Z,100281.88
2023-11-24T17:58:21.731Z,100270.00
2023-11-24T18:03:23.171Z,100261.13
2023-11-24T18:08:24.688Z,100246.13
2023-11-24T18:13:26.912Z,100251.75
2023-11-24T18:18:28.353Z,100264.13
2023-11-24T18:23:32.312Z,100258.72
2023-11-24T18:28:33.793Z,100258.59
2023-11-24T18:33:35.205Z,100253.59
2023-11-24T18:38:36.620Z,100262.50
2023-11-24T18:43:40.539Z,100266.38
2023-11-24T18:48:42.434Z,100274.47
2023-11-24T18:53:44.164Z,100258.00
2023-11-24T18:58:45.500Z,100270.59
2023-11-24T19:03:46.947Z,100268.81
2023-11-24T19:08:48.324Z,100261.38
2023-11-24T19:13:50.201Z,100251.06
2023-11-24T19:18:51.564Z,100264.16
2023-11-24T19:23:53.741Z,100273.53
2023-11-24T19:29:02.862Z,100256.06
2023-11-24T19:34:09.999Z,100236.03
2023-11-24T19:39:12.194Z,100228.63
2023-11-24T19:44:14.681Z,100221.31
2023-11-24T19:49:16.090Z,100221.34
2023-11-24T19:54:17.509Z,100200.66
2023-11-24T19:59:18.848Z,100201.47
2023-11-24T20:04:20.510Z,100206.16
2023-11-24T20:09:21.856Z,100198.22
2023-11-24T20:14:23.254Z,100205.00
2023-11-24T20:19:24.638Z,100196.44
2023-11-24T20:24:27.173Z,100199.34
2023-11-24T20:29:28.520Z,100180.59
2023-11-24T20:34:29.924Z,100184.28
2023-11-24T20:39:31.314Z,100180.09
2023-11-24T20:44:34.299Z,100190.78
2023-11-24T20:49:36.008Z,100200.00
2023-11-24T20:54:38.698Z,100222.78
2023-11-24T20:59:40.089Z,100256.84
2023-11-24T21:04:41.598Z,100275.56
2023-11-24T21:09:42.980Z,100261.44
2023-11-24T21:14:44.314Z,100259.25
2023-11-24T21:19:45.669Z,100269.78
2023-11-24T21:24:47.074Z,100281.19
2023-11-24T21:29:48.659Z,100286.00
2023-11-24T21:34:50.112Z,100290.06
2023-11-24T21:39:51.468Z,100283.72
2023-11-24T21:44:53.876Z,100320.50
2023-11-24T21:49:55.403Z,100335.53
2023-11-24T21:54:57.054Z,100352.38
2023-11-24T21:59:58.564Z,100364.59
2023-11-24T22:05:00.383Z,100364.09
2023-11-24T22:10:06.269Z,100369.00
2023-11-24T22:15:09.060Z,100372.88
2023-11-24T22:20:15.345Z,100366.28
2023-11-24T22:25:16.819Z,100373.75
2023-11-24T22:30:18.237Z,100404.00
2023-11-24T22:35:19.586Z,100405.59
2023-11-24T22:40:20.986Z,100409.25
2023-11-24T22:45:22.393Z,100424.44
2023-11-24T22:50:23.834Z,100435.41
2023-11-24T22:55:25.201Z,100435.91
2023-11-24T23:00:37.321Z,100439.63
2023-11-24T23:05:38.751Z,100438.50
2023-11-24T23:10:40.125Z,100446.09
2023-11-24T23:15:41.487Z,100458.81
2023-11-24T23:20:43.021Z,100464.25
2023-11-24T23:25:44.442Z,100465.75
2023-11-24T23:30:45.823Z,100471.03
2023-11-24T23:35:48.156Z,100472.75
2023-11-24T23:40:49.675Z,100476.44
2023-11-24T23:45:51.085Z,100486.75
2023-11-24T23:50:52.834Z,100491.97
2023-11-24T23:55:57.907Z,100493.41
